PWSweather.com
Personal Weather Stations
Station Observations
UPSTATEWEATHER
Silver Leaf, Greer, SC 29650

Silver LeafGreer, SC 29650

Lat: 34.8955792, Lon: -82.2868211

Elevation: 875

Station Type: Davis Vantage Vue

https://www.upstateweather.com

High Low Average
Temperature 87.3°F30.7°C 72.7°F22.6°C 79.3°F26.3°C
Dew Point 75.8°F24.3°C 71.0°F21.7°C 72.7°F22.6°C
Winds 1.2 mph 1.9 kmh Calm Calm Calm Calm
Wind Gusts 3.5 mph5.6 kmh -- 1.0 mph1.6 kmh
Humidity 96% 63% 81%
Pressure 30.02 in1016.6 mb 29.91 in1012.9 mb -
Precipitation 0.00 in0.0 mm - -
Hour Temp Dew Point Humidity Winds Wind Gusts Pressure Precip Precip Rate Daily Precip Total
12:00 AM 74.9°F23.8°C 72.7°F22.6°C 93% Calm Calm -- 29.92 in1013.2 mb - 0.00 in0.0 mm 0.00 in0.0 mm
12:15 AM 74.8°F23.8°C 72.9°F22.7°C 94% Calm Calm -- 29.92 in1013.2 mb - 0.00 in0.0 mm 0.00 in0.0 mm
12:30 AM 74.7°F23.7°C 72.9°F22.7°C 94% Calm Calm -- 29.92 in1013.2 mb - 0.00 in0.0 mm 0.00 in0.0 mm
12:45 AM 74.3°F23.5°C 72.5°F22.5°C 94% Calm Calm -- 29.92 in1013.2 mb - 0.00 in0.0 mm 0.00 in0.0 mm
01:00 AM 73.9°F23.3°C 72.4°F22.4°C 95% Calm Calm -- 29.92 in1013.2 mb - 0.00 in0.0 mm 0.00 in0.0 mm
01:15 AM 73.6°F23.1°C 72.1°F22.3°C 95% Calm Calm -- 29.92 in1013.2 mb - 0.00 in0.0 mm 0.00 in0.0 mm
01:30 AM 73.5°F23.1°C 72.0°F22.2°C 95% Calm Calm -- 29.92 in1013.2 mb - 0.00 in0.0 mm 0.00 in0.0 mm
01:45 AM 73.5°F23.1°C 72.0°F22.2°C 95% Calm Calm -- 29.92 in1013.2 mb - 0.00 in0.0 mm 0.00 in0.0 mm
02:00 AM 73.4°F23.0°C 71.9°F22.2°C 95% Calm Calm -- 29.93 in1013.5 mb - 0.00 in0.0 mm 0.00 in0.0 mm
02:15 AM 73.3°F22.9°C 72.1°F22.3°C 96% Calm Calm -- 29.93 in1013.5 mb - 0.00 in0.0 mm 0.00 in0.0 mm
02:30 AM 72.9°F22.7°C 71.7°F22.1°C 96% Calm Calm -- 29.92 in1013.2 mb - 0.00 in0.0 mm 0.00 in0.0 mm
02:45 AM 72.9°F22.7°C 71.7°F22.1°C 96% Calm Calm -- 29.92 in1013.2 mb - 0.00 in0.0 mm 0.00 in0.0 mm
03:00 AM 73.0°F22.8°C 71.8°F22.1°C 96% Calm Calm -- 29.92 in1013.2 mb - 0.00 in0.0 mm 0.00 in0.0 mm
03:15 AM 73.1°F22.8°C 71.9°F22.2°C 96% Calm Calm -- 29.92 in1013.2 mb - 0.00 in0.0 mm 0.00 in0.0 mm
03:30 AM 73.1°F22.8°C 71.9°F22.2°C 96% Calm Calm -- 29.91 in1012.9 mb - 0.00 in0.0 mm 0.00 in0.0 mm
03:45 AM 73.1°F22.8°C 71.9°F22.2°C 96% Calm Calm -- 29.91 in1012.9 mb - 0.00 in0.0 mm 0.00 in0.0 mm
04:00 AM 72.9°F22.7°C 71.7°F22.1°C 96% Calm Calm -- 29.91 in1012.9 mb - 0.00 in0.0 mm 0.00 in0.0 mm
04:15 AM 72.8°F22.7°C 71.6°F22.0°C 96% Calm Calm -- 29.92 in1013.2 mb - 0.00 in0.0 mm 0.00 in0.0 mm
04:30 AM 72.8°F22.7°C 71.6°F22.0°C 96% Calm Calm -- 29.92 in1013.2 mb - 0.00 in0.0 mm 0.00 in0.0 mm
04:45 AM 72.8°F22.7°C 71.6°F22.0°C 96% Calm Calm -- 29.92 in1013.2 mb - 0.00 in0.0 mm 0.00 in0.0 mm
05:00 AM 72.8°F22.7°C 71.6°F22.0°C 96% Calm Calm -- 29.93 in1013.5 mb - 0.00 in0.0 mm 0.00 in0.0 mm
05:15 AM 72.7°F22.6°C 71.5°F21.9°C 96% Calm Calm -- 29.93 in1013.5 mb - 0.00 in0.0 mm 0.00 in0.0 mm
05:30 AM 72.8°F22.7°C 71.3°F21.8°C 95% Calm Calm -- 29.94 in1013.9 mb - 0.00 in0.0 mm 0.00 in0.0 mm
05:45 AM 73.0°F22.8°C 71.5°F21.9°C 95% Calm Calm -- 29.94 in1013.9 mb - 0.00 in0.0 mm 0.00 in0.0 mm
06:00 AM 73.0°F22.8°C 71.5°F21.9°C 95% Calm Calm 1.2 mph1.9 kmh 29.95 in1014.2 mb - 0.00 in0.0 mm 0.00 in0.0 mm
06:15 AM 73.2°F22.9°C 71.4°F21.9°C 94% Calm Calm -- 29.95 in1014.2 mb - 0.00 in0.0 mm 0.00 in0.0 mm
06:30 AM 73.4°F23.0°C 71.6°F22.0°C 94% Calm Calm -- 29.96 in1014.6 mb - 0.00 in0.0 mm 0.00 in0.0 mm
06:45 AM 73.6°F23.1°C 71.4°F21.9°C 93% Calm Calm -- 29.97 in1014.9 mb - 0.00 in0.0 mm 0.00 in0.0 mm
07:00 AM 73.9°F23.3°C 71.4°F21.9°C 92% Calm Calm -- 29.97 in1014.9 mb - 0.00 in0.0 mm 0.00 in0.0 mm
07:15 AM 74.1°F23.4°C 71.3°F21.8°C 91% Calm Calm -- 29.97 in1014.9 mb - 0.00 in0.0 mm 0.00 in0.0 mm
07:30 AM 74.5°F23.6°C 71.4°F21.9°C 90% Calm Calm 1.2 mph1.9 kmh 29.98 in1015.2 mb - 0.00 in0.0 mm 0.00 in0.0 mm
07:45 AM 74.9°F23.8°C 71.1°F21.7°C 88% Calm Calm 1.2 mph1.9 kmh 29.99 in1015.6 mb - 0.00 in0.0 mm 0.00 in0.0 mm
08:00 AM 75.9°F24.4°C 71.1°F21.7°C 85% Calm Calm 2.3 mph3.7 kmh 29.99 in1015.6 mb - 0.00 in0.0 mm 0.00 in0.0 mm
08:15 AM 77.3°F25.2°C 71.4°F21.9°C 82% Calm Calm -- 29.99 in1015.6 mb - 0.00 in0.0 mm 0.00 in0.0 mm
08:30 AM 78.4°F25.8°C 71.0°F21.7°C 78% Calm Calm 1.2 mph1.9 kmh 30.00 in1015.9 mb - 0.00 in0.0 mm 0.00 in0.0 mm
08:45 AM 79.1°F26.2°C 71.7°F22.1°C 78% Calm Calm 1.2 mph1.9 kmh 30.00 in1015.9 mb - 0.00 in0.0 mm 0.00 in0.0 mm
09:00 AM 79.9°F26.6°C 71.3°F21.8°C 75% Calm Calm 1.2 mph1.9 kmh 30.01 in1016.3 mb - 0.00 in0.0 mm 0.00 in0.0 mm
09:15 AM 80.4°F26.9°C 71.7°F22.1°C 75% Calm Calm 2.3 mph3.7 kmh 30.01 in1016.3 mb - 0.00 in0.0 mm 0.00 in0.0 mm
09:30 AM 80.1°F26.7°C 71.8°F22.1°C 76% Calm Calm 1.2 mph1.9 kmh 30.02 in1016.6 mb - 0.00 in0.0 mm 0.00 in0.0 mm
09:45 AM 79.8°F26.6°C 72.7°F22.6°C 79% Calm Calm 3.5 mph5.6 kmh 30.02 in1016.6 mb - 0.00 in0.0 mm 0.00 in0.0 mm
10:00 AM 79.7°F26.5°C 72.2°F22.3°C 78% Calm Calm 2.3 mph3.7 kmh 30.02 in1016.6 mb - 0.00 in0.0 mm 0.00 in0.0 mm
10:15 AM 80.7°F27.1°C 72.8°F22.7°C 77% Calm Calm 1.2 mph1.9 kmh 30.02 in1016.6 mb - 0.00 in0.0 mm 0.00 in0.0 mm
10:30 AM 82.4°F28.0°C 73.7°F23.2°C 75% 1.2 mph 1.9 kmh 1.2 mph1.9 kmh 30.02 in1016.6 mb - 0.00 in0.0 mm 0.00 in0.0 mm
10:45 AM 82.7°F28.2°C 73.1°F22.8°C 73% Calm Calm 2.3 mph3.7 kmh 30.02 in1016.6 mb - 0.00 in0.0 mm 0.00 in0.0 mm
11:00 AM 83.2°F28.4°C 73.2°F22.9°C 72% 1.2 mph N1.9 kmh N 3.5 mph5.6 kmh 30.02 in1016.6 mb - 0.00 in0.0 mm 0.00 in0.0 mm
11:15 AM 83.3°F28.5°C 73.3°F22.9°C 72% 1.2 mph 1.9 kmh 1.2 mph1.9 kmh 30.02 in1016.6 mb - 0.00 in0.0 mm 0.00 in0.0 mm
11:30 AM 83.3°F28.5°C 73.3°F22.9°C 72% Calm Calm -- 30.02 in1016.6 mb - 0.00 in0.0 mm 0.00 in0.0 mm
11:45 AM 83.8°F28.8°C 73.4°F23.0°C 71% Calm Calm 2.3 mph3.7 kmh 30.01 in1016.3 mb - 0.00 in0.0 mm 0.00 in0.0 mm
12:00 PM 84.5°F29.2°C 74.5°F23.6°C 72% Calm Calm 1.2 mph1.9 kmh 30.00 in1015.9 mb - 0.00 in0.0 mm 0.00 in0.0 mm
12:15 PM 84.4°F29.1°C 73.1°F22.8°C 69% Calm Calm 2.3 mph3.7 kmh 30.00 in1015.9 mb - 0.00 in0.0 mm 0.00 in0.0 mm
12:30 PM 84.8°F29.3°C 73.9°F23.3°C 70% 1.2 mph 1.9 kmh 1.2 mph1.9 kmh 30.00 in1015.9 mb - 0.00 in0.0 mm 0.00 in0.0 mm
12:45 PM 85.2°F29.6°C 73.9°F23.3°C 69% Calm Calm -- 29.99 in1015.6 mb - 0.00 in0.0 mm 0.00 in0.0 mm
01:00 PM 85.9°F29.9°C 74.5°F23.6°C 69% 1.2 mph N1.9 kmh N 3.5 mph5.6 kmh 29.99 in1015.6 mb - 0.00 in0.0 mm 0.00 in0.0 mm
01:15 PM 85.8°F29.9°C 74.0°F23.3°C 68% 1.2 mph N1.9 kmh N 3.5 mph5.6 kmh 29.98 in1015.2 mb - 0.00 in0.0 mm 0.00 in0.0 mm
01:30 PM 84.5°F29.2°C 74.1°F23.4°C 71% Calm Calm -- 29.98 in1015.2 mb - 0.00 in0.0 mm 0.00 in0.0 mm
01:45 PM 85.8°F29.9°C 74.5°F23.6°C 69% Calm Calm 2.3 mph3.7 kmh 29.98 in1015.2 mb - 0.00 in0.0 mm 0.00 in0.0 mm
02:00 PM 86.3°F30.2°C 74.0°F23.3°C 67% Calm Calm 1.2 mph1.9 kmh 29.97 in1014.9 mb - 0.00 in0.0 mm 0.00 in0.0 mm
02:15 PM 85.7°F29.8°C 74.4°F23.6°C 69% Calm Calm -- 29.97 in1014.9 mb - 0.00 in0.0 mm 0.00 in0.0 mm
02:30 PM 86.3°F30.2°C 75.8°F24.3°C 71% 1.2 mph 1.9 kmh 2.3 mph3.7 kmh 29.96 in1014.6 mb - 0.00 in0.0 mm 0.00 in0.0 mm
02:45 PM 86.1°F30.1°C 73.8°F23.2°C 67% Calm Calm -- 29.96 in1014.6 mb - 0.00 in0.0 mm 0.00 in0.0 mm
03:00 PM 86.8°F30.4°C 73.2°F22.9°C 64% Calm Calm 2.3 mph3.7 kmh 29.96 in1014.6 mb - 0.00 in0.0 mm 0.00 in0.0 mm
03:15 PM 86.4°F30.2°C 73.7°F23.2°C 66% 1.2 mph 1.9 kmh 1.2 mph1.9 kmh 29.95 in1014.2 mb - 0.00 in0.0 mm 0.00 in0.0 mm
03:30 PM 85.6°F29.8°C 74.7°F23.7°C 70% Calm Calm -- 29.95 in1014.2 mb - 0.00 in0.0 mm 0.00 in0.0 mm
03:45 PM 86.2°F30.1°C 74.9°F23.8°C 69% Calm Calm -- 29.95 in1014.2 mb - 0.00 in0.0 mm 0.00 in0.0 mm
04:00 PM 87.3°F30.7°C 73.1°F22.8°C 63% 1.2 mph N1.9 kmh N 1.2 mph1.9 kmh 29.94 in1013.9 mb - 0.00 in0.0 mm 0.00 in0.0 mm
04:15 PM 86.6°F30.3°C 73.4°F23.0°C 65% Calm Calm -- 29.94 in1013.9 mb - 0.00 in0.0 mm 0.00 in0.0 mm
04:30 PM 86.7°F30.4°C 72.6°F22.6°C 63% Calm Calm 1.2 mph1.9 kmh 29.94 in1013.9 mb - 0.00 in0.0 mm 0.00 in0.0 mm
04:45 PM 85.7°F29.8°C 74.7°F23.7°C 70% Calm Calm -- 29.93 in1013.5 mb - 0.00 in0.0 mm 0.00 in0.0 mm
05:00 PM 85.1°F29.5°C 74.6°F23.7°C 71% Calm Calm 1.2 mph1.9 kmh 29.93 in1013.5 mb - 0.00 in0.0 mm 0.00 in0.0 mm
05:15 PM 85.1°F29.5°C 73.8°F23.2°C 69% Calm Calm -- 29.93 in1013.5 mb - 0.00 in0.0 mm 0.00 in0.0 mm
05:30 PM 85.1°F29.5°C 72.5°F22.5°C 66% Calm Calm -- 29.93 in1013.5 mb - 0.00 in0.0 mm 0.00 in0.0 mm
05:45 PM 85.5°F29.7°C 74.5°F23.6°C 70% Calm Calm -- 29.94 in1013.9 mb - 0.00 in0.0 mm 0.00 in0.0 mm
06:00 PM 84.6°F29.2°C 73.7°F23.2°C 70% Calm Calm -- 29.95 in1014.2 mb - 0.00 in0.0 mm 0.00 in0.0 mm
06:15 PM 84.3°F29.1°C 73.9°F23.3°C 71% Calm Calm -- 29.94 in1013.9 mb - 0.00 in0.0 mm 0.00 in0.0 mm
06:30 PM 83.9°F28.8°C 73.9°F23.3°C 72% Calm Calm -- 29.95 in1014.2 mb - 0.00 in0.0 mm 0.00 in0.0 mm
06:45 PM 83.4°F28.6°C 74.3°F23.5°C 74% Calm Calm -- 29.95 in1014.2 mb - 0.00 in0.0 mm 0.00 in0.0 mm
07:00 PM 82.7°F28.2°C 74.0°F23.3°C 75% Calm Calm -- 29.95 in1014.2 mb - 0.00 in0.0 mm 0.00 in0.0 mm
07:15 PM 81.9°F27.7°C 72.8°F22.7°C 74% Calm Calm -- 29.95 in1014.2 mb - 0.00 in0.0 mm 0.00 in0.0 mm
07:30 PM 81.6°F27.6°C 72.1°F22.3°C 73% Calm Calm -- 29.95 in1014.2 mb - 0.00 in0.0 mm 0.00 in0.0 mm
07:45 PM 81.2°F27.3°C 73.3°F22.9°C 77% Calm Calm -- 29.95 in1014.2 mb - 0.00 in0.0 mm 0.00 in0.0 mm
08:00 PM 80.6°F27.0°C 73.1°F22.8°C 78% Calm Calm -- 29.95 in1014.2 mb - 0.00 in0.0 mm 0.00 in0.0 mm
08:15 PM 80.1°F26.7°C 73.0°F22.8°C 79% Calm Calm -- 29.96 in1014.6 mb - 0.00 in0.0 mm 0.00 in0.0 mm
08:30 PM 79.5°F26.4°C 72.5°F22.5°C 79% Calm Calm -- 29.96 in1014.6 mb - 0.00 in0.0 mm 0.00 in0.0 mm
08:45 PM 79.2°F26.2°C 72.1°F22.3°C 79% Calm Calm -- 29.96 in1014.6 mb - 0.00 in0.0 mm 0.00 in0.0 mm
09:00 PM 79.1°F26.2°C 72.4°F22.4°C 80% Calm Calm -- 29.97 in1014.9 mb - 0.00 in0.0 mm 0.00 in0.0 mm
09:15 PM 78.8°F26.0°C 72.5°F22.5°C 81% Calm Calm -- 29.98 in1015.2 mb - 0.00 in0.0 mm 0.00 in0.0 mm
09:30 PM 78.4°F25.8°C 72.4°F22.4°C 82% Calm Calm -- 29.98 in1015.2 mb - 0.00 in0.0 mm 0.00 in0.0 mm
09:45 PM 78.2°F25.7°C 72.3°F22.4°C 82% Calm Calm -- 29.99 in1015.6 mb - 0.00 in0.0 mm 0.00 in0.0 mm
10:00 PM 78.1°F25.6°C 72.2°F22.3°C 82% Calm Calm -- 29.99 in1015.6 mb - 0.00 in0.0 mm 0.00 in0.0 mm
10:15 PM 78.0°F25.6°C 72.8°F22.7°C 84% Calm Calm -- 29.99 in1015.6 mb - 0.00 in0.0 mm 0.00 in0.0 mm
10:30 PM 77.7°F25.4°C 72.5°F22.5°C 84% Calm Calm -- 29.99 in1015.6 mb - 0.00 in0.0 mm 0.00 in0.0 mm
10:45 PM 77.5°F25.3°C 72.3°F22.4°C 84% Calm Calm -- 29.99 in1015.6 mb - 0.00 in0.0 mm 0.00 in0.0 mm
11:00 PM 77.2°F25.1°C 72.0°F22.2°C 84% Calm Calm -- 29.99 in1015.6 mb - 0.00 in0.0 mm 0.00 in0.0 mm
11:15 PM 76.9°F24.9°C 72.0°F22.2°C 85% Calm Calm -- 29.99 in1015.6 mb - 0.00 in0.0 mm 0.00 in0.0 mm
11:30 PM 76.8°F24.9°C 72.3°F22.4°C 86% Calm Calm -- 29.99 in1015.6 mb - 0.00 in0.0 mm 0.00 in0.0 mm
11:45 PM 76.8°F24.9°C 72.6°F22.6°C 87% Calm Calm -- 29.99 in1015.6 mb - 0.00 in0.0 mm 0.00 in0.0 mm